Warren, Idaho
Current Conditions -  °F | °C
As of 1:07 AM on Saturday 25 Oct 2014 (Local Time) from KMYL Reporting Station
Haze Haze  
Wind Chill: 36°   Ceiling: Unl
Heat Index: 36°   Visibility: 2.5mi
Dew Point: 35°   Wind: 0mph
Humidity: 97%   Direction: NA
Pressure: 29.98"   Gusts: NA
Location:  45.26°N, 115.68°W
Report Text: KMYL 250707Z AUTO 00000KT 2 1/2SM BR SCT001 02/02 A2998 RMK AO2 VIS 1 1/4V5 T00220017
Loading
Personal Weather Stations






























Interactive Weather Map
Tropical Storm Tracking
New forecast layout! Learn more

10-Day Weather Forecast

Advertisements
Track Severe Weather on mobile